ADDS TAF Board (Experimental) INFO Settings
IDs: Format: Expanded Condensed

KLAS - Las Vegas/McCarran I, NV, US

Issued at 0248 UTC 31 Aug 2015
Updated at: 0442 UTC 31 Aug 2015
Time0356Z 31/05Z 31/06Z 31/07Z 31/08Z 31/09Z 31/10Z 31/11Z 31/12Z 31/13Z 31/14Z 31/15Z 31/16Z 31/17Z
Type OBS PRVL PRVL PRVL PRVL PRVL PRVL PRVL PRVL PRVL PRVL PRVL PRVL PRVL
VIS 10 >6 >6 >6 >6 >6 >6 >6 >6 >6 >6 >6 >6 >6
CIG -- -- -- -- -- -- -- -- -- -- -- -- -- --
Cover SCT SCT SCT SCT SCT SCT SCT SCT SCT SCT SCT SCT SCT SCT
FltCat VFR VFR VFR VFR VFR VFR VFR VFR VFR VFR VFR VFR VFR VFR
WX -- -- -- -- -- -- -- -- -- -- -- -- -- --
WDir 220 210 210 210 210 210 210 210 210 210 210 210 210 210
WSpd 7 9 9 9 9 9 9 9 9 9 9 9 9 9
WGst -- -- -- -- -- -- -- -- -- -- -- -- -- --
R01/19
XWnd 2 1 1 1 1 1 1 1 1 1 1 1 1 1
HWnd -7 -9 -9 -9 -9 -9 -9 -9 -9 -9 -9 -9 -9 -9
R07/25
XWnd -5 -8 -8 -8 -8 -8 -8 -8 -8 -8 -8 -8 -8 -8
HWnd -4 -4 -4 -4 -4 -4 -4 -4 -4 -4 -4 -4 -4 -4

NOTE: TEMPO conditions in [brackets]. Keep in mind TEMPO conditions might be better (lower impact) than prevailing conditions.

Raw TAF
KLAS 310248Z 3103/3124 21009KT P6SM SCT250
  FM311800 11007KT P6SM SCT250
  FM312200 19012G20KT P6SM SCT250


Raw METAR
KLAS 310356Z 22007KT 10SM FEW120 FEW160 SCT250 34/04 A2975 RMK AO2 SLP042 T03440039
KLAS 310256Z 23007KT 10SM FEW120 FEW160 SCT250 35/04 A2973 RMK AO2 SLP034 T03500039 55004
KLAS 310156Z 21012G15KT 10SM FEW120 SCT160 SCT250 36/03 A2972 RMK AO2 SLP030 T03610033

METAR Board
Radar Display
Forecast Discussion

TAF Board Legend

Potential Impact
Threat None Slight Moderate High
Visibility (sm) ≥5.1 5.1>X≥3 3>X≥1 <1
Ceiling (100 ft) ≥30.1 30.1>X≥10 10>X≥5 <5
Wind Speed (kt) <10 10≤X<20 20≤X<30 ≥30
Wind Gust (kt) <15 15≤X<25 25≤X<35 ≥35
Weather No Wx Reported VCTS,-TS,-FZRA,SN TS,FZRA +TS,+FZRA,+SN